createdAt,value
2018-04-25T00:02:26.916Z,10.37
2018-04-25T00:05:31.909Z,10.36
2018-04-25T00:08:37.724Z,10.34
2018-04-25T00:11:43.473Z,10.33
2018-04-25T00:14:49.696Z,10.34
2018-04-25T00:17:54.962Z,10.32
2018-04-25T00:20:59.956Z,10.32
2018-04-25T00:24:04.913Z,10.30
2018-04-25T00:27:10.481Z,10.30
2018-04-25T00:30:15.745Z,10.28
2018-04-25T00:33:21.310Z,10.27
2018-04-25T00:36:26.761Z,10.26
2018-04-25T00:39:32.757Z,10.25
2018-04-25T00:42:37.692Z,10.24
2018-04-25T00:45:43.466Z,10.22
2018-04-25T00:48:48.293Z,10.22
2018-04-25T00:51:54.359Z,10.20
2018-04-25T00:55:00.017Z,10.18
2018-04-25T00:58:04.713Z,10.18
2018-04-25T01:01:09.369Z,10.18
2018-04-25T01:04:15.036Z,10.17
2018-04-25T01:07:19.673Z,10.16
2018-04-25T01:10:24.353Z,10.18
2018-04-25T01:13:29.692Z,10.15
2018-04-25T01:16:34.364Z,10.16
2018-04-25T01:19:39.627Z,10.16
2018-04-25T01:22:48.175Z,10.15
2018-04-25T01:25:58.702Z,10.16
2018-04-25T01:29:06.836Z,10.15
2018-04-25T01:32:11.257Z,10.14
2018-04-25T01:35:16.736Z,10.14
2018-04-25T01:38:21.381Z,10.14
2018-04-25T01:41:26.044Z,10.14
2018-04-25T01:44:34.594Z,10.14
2018-04-25T01:47:39.017Z,10.13
2018-04-25T01:50:43.448Z,10.14
2018-04-25T01:54:00.460Z,10.15
2018-04-25T01:57:23.074Z,10.15
2018-04-25T02:00:47.140Z,10.16
2018-04-25T02:03:58.640Z,10.18
2018-04-25T02:07:04.371Z,10.19
2018-04-25T02:10:10.151Z,10.21
2018-04-25T02:13:15.397Z,10.23
2018-04-25T02:16:21.571Z,10.26
2018-04-25T02:19:27.593Z,10.28
2018-04-25T02:22:33.535Z,10.32
2018-04-25T02:25:39.664Z,10.34
2018-04-25T02:28:45.332Z,10.36
2018-04-25T02:31:51.475Z,10.36
2018-04-25T02:34:57.609Z,10.38
2018-04-25T02:38:03.814Z,10.39
2018-04-25T02:41:08.746Z,10.41
2018-04-25T02:44:13.965Z,10.43
2018-04-25T02:47:20.173Z,10.45
2018-04-25T02:50:25.385Z,10.46
2018-04-25T02:53:31.708Z,10.48
2018-04-25T02:56:37.401Z,10.50
2018-04-25T02:59:43.289Z,10.51
2018-04-25T03:02:50.436Z,10.53
2018-04-25T03:05:56.257Z,10.55
2018-04-25T03:09:02.383Z,10.56
2018-04-25T03:12:08.517Z,10.59
2018-04-25T03:15:13.868Z,10.61
2018-04-25T03:18:19.073Z,10.63
2018-04-25T03:21:25.002Z,10.66
2018-04-25T03:24:30.297Z,10.69
2018-04-25T03:27:35.493Z,10.72
2018-04-25T03:30:41.222Z,10.74
2018-04-25T03:33:46.605Z,10.76
2018-04-25T03:36:52.741Z,10.80
2018-04-25T03:39:58.005Z,10.82
2018-04-25T03:43:03.221Z,10.85
2018-04-25T03:46:08.474Z,10.87
2018-04-25T03:49:14.486Z,10.90
2018-04-25T03:52:20.409Z,10.92
2018-04-25T03:55:26.574Z,10.94
2018-04-25T03:58:31.788Z,10.96
2018-04-25T04:01:37.902Z,10.98
2018-04-25T04:04:43.923Z,11.00
2018-04-25T04:07:51.152Z,11.02
2018-04-25T04:10:57.009Z,11.04
2018-04-25T04:14:03.015Z,11.05
2018-04-25T04:17:08.233Z,11.06
2018-04-25T04:20:14.393Z,11.08
2018-04-25T04:23:20.012Z,11.09
2018-04-25T04:26:25.212Z,11.11
2018-04-25T04:29:32.093Z,11.14
2018-04-25T04:32:38.233Z,11.15
2018-04-25T04:35:44.352Z,11.18
2018-04-25T04:38:50.692Z,11.20
2018-04-25T04:41:56.424Z,11.23
2018-04-25T04:45:02.614Z,11.25
2018-04-25T04:48:08.721Z,11.27
2018-04-25T04:51:14.356Z,11.29
2018-04-25T04:54:20.498Z,11.31
2018-04-25T04:57:26.255Z,11.33
2018-04-25T05:00:31.721Z,11.35
2018-04-25T05:03:37.661Z,11.37
2018-04-25T05:06:43.345Z,11.41
2018-04-25T05:09:49.489Z,11.43
2018-04-25T05:12:55.618Z,11.46
2018-04-25T05:16:01.085Z,11.48
2018-04-25T05:19:07.195Z,11.52
2018-04-25T05:22:12.404Z,11.55
2018-04-25T05:25:17.613Z,11.57
2018-04-25T05:28:22.858Z,11.61
2018-04-25T05:31:28.069Z,11.64
2018-04-25T05:34:34.014Z,11.66
2018-04-25T05:37:39.710Z,11.70
2018-04-25T05:40:45.857Z,11.73
2018-04-25T05:43:51.078Z,11.74
2018-04-25T05:46:56.416Z,11.77
2018-04-25T05:50:03.494Z,11.80
2018-04-25T05:53:09.532Z,11.84
2018-04-25T05:56:15.456Z,11.87
2018-04-25T05:59:21.489Z,11.91
2018-04-25T06:02:26.695Z,11.94
2018-04-25T06:05:31.612Z,11.98
2018-04-25T06:08:37.941Z,12.02
2018-04-25T06:11:42.921Z,12.08
2018-04-25T06:14:48.164Z,12.15
2018-04-25T06:17:54.275Z,12.20
2018-04-25T06:20:59.503Z,12.25
2018-04-25T06:24:04.396Z,12.29
2018-04-25T06:27:09.610Z,12.33
2018-04-25T06:30:14.824Z,12.37
2018-04-25T06:33:20.055Z,12.40
2018-04-25T06:36:25.732Z,12.44
2018-04-25T06:39:30.992Z,12.47
2018-04-25T06:42:37.244Z,12.51
2018-04-25T06:45:43.307Z,12.57
2018-04-25T06:48:49.443Z,12.60
2018-04-25T06:51:55.382Z,12.63
2018-04-25T06:55:00.633Z,12.67
2018-04-25T06:58:07.029Z,12.71
2018-04-25T07:01:12.262Z,12.74
2018-04-25T07:04:18.690Z,12.78
2018-04-25T07:07:24.671Z,12.81
2018-04-25T07:10:30.473Z,12.84
2018-04-25T07:13:36.692Z,12.88
2018-04-25T07:16:41.881Z,12.91
2018-04-25T07:19:48.016Z,12.94
2018-04-25T07:22:54.188Z,12.99
2018-04-25T07:25:59.935Z,13.04
2018-04-25T07:29:05.589Z,13.07
2018-04-25T07:32:11.709Z,13.11
2018-04-25T07:35:16.995Z,13.14
2018-04-25T07:38:22.966Z,13.17
2018-04-25T07:41:30.096Z,13.19
2018-04-25T07:44:36.027Z,13.22
2018-04-25T07:47:42.065Z,13.25
2018-04-25T07:50:48.220Z,13.27
2018-04-25T07:53:54.292Z,13.30
2018-04-25T07:56:59.485Z,13.31
2018-04-25T08:00:04.137Z,13.34
2018-04-25T08:03:09.370Z,13.34
2018-04-25T08:06:14.570Z,13.35
2018-04-25T08:09:20.206Z,13.38
2018-04-25T08:12:37.161Z,13.41
2018-04-25T08:15:53.928Z,13.42
2018-04-25T08:19:09.965Z,13.42
2018-04-25T08:22:14.885Z,13.45
2018-04-25T08:25:20.109Z,13.45
2018-04-25T08:28:25.299Z,13.45
2018-04-25T08:31:32.427Z,13.46
2018-04-25T08:34:38.230Z,13.50
2018-04-25T08:37:44.262Z,13.49
2018-04-25T08:40:50.261Z,13.52
2018-04-25T08:43:56.285Z,13.55
2018-04-25T08:47:02.314Z,13.60
2018-04-25T08:50:08.341Z,13.64
2018-04-25T08:53:14.466Z,13.66
2018-04-25T08:56:20.497Z,13.69
2018-04-25T08:59:26.421Z,13.73
2018-04-25T09:02:31.405Z,13.76
2018-04-25T09:05:36.598Z,13.80
2018-04-25T09:08:41.814Z,13.87
2018-04-25T09:11:47.006Z,13.92
2018-04-25T09:14:53.333Z,13.95
2018-04-25T09:17:58.944Z,13.96
2018-04-25T09:21:04.533Z,13.94
2018-04-25T09:24:10.197Z,13.95
2018-04-25T09:27:15.389Z,13.99
2018-04-25T09:30:20.379Z,13.98
2018-04-25T09:33:26.508Z,14.00
2018-04-25T09:36:32.433Z,14.02
2018-04-25T09:39:38.237Z,13.97
2018-04-25T09:42:44.433Z,13.97
2018-04-25T09:45:49.709Z,13.95
2018-04-25T09:48:56.878Z,13.92
2018-04-25T09:52:02.405Z,13.88
2018-04-25T09:55:08.461Z,13.90
2018-04-25T09:58:13.662Z,13.78
2018-04-25T10:01:24.362Z,13.76
2018-04-25T10:04:29.936Z,13.69
2018-04-25T10:07:35.349Z,13.61
2018-04-25T10:10:40.596Z,13.54
2018-04-25T10:13:46.829Z,13.49
2018-04-25T10:16:52.038Z,13.43
2018-04-25T10:19:57.225Z,13.34
2018-04-25T10:23:03.881Z,13.28
2018-04-25T10:26:09.085Z,13.22
2018-04-25T10:29:14.297Z,13.22
2018-04-25T10:32:20.398Z,13.16
2018-04-25T10:35:25.801Z,13.11
2018-04-25T10:38:31.784Z,13.06
2018-04-25T10:41:36.969Z,13.03
2018-04-25T10:44:43.105Z,12.96
2018-04-25T10:47:48.739Z,13.00
2018-04-25T10:50:53.928Z,13.05
2018-04-25T10:54:00.386Z,13.02
2018-04-25T10:57:05.583Z,13.00
2018-04-25T11:00:11.705Z,13.01
2018-04-25T11:03:17.618Z,12.95
2018-04-25T11:06:23.672Z,12.94
2018-04-25T11:09:29.766Z,12.90
2018-04-25T11:12:35.805Z,12.88
2018-04-25T11:15:42.856Z,12.81
2018-04-25T11:18:48.646Z,12.73
2018-04-25T11:21:55.589Z,12.70
2018-04-25T11:25:01.238Z,12.64
2018-04-25T11:28:07.298Z,12.63
2018-04-25T11:31:13.319Z,12.66
2018-04-25T11:34:19.465Z,12.61
2018-04-25T11:37:25.525Z,12.60
2018-04-25T11:40:31.917Z,12.58
2018-04-25T11:43:37.117Z,12.62
2018-04-25T11:46:42.325Z,12.60
2018-04-25T11:49:48.255Z,12.58
2018-04-25T11:52:54.422Z,12.55
2018-04-25T11:56:00.497Z,12.52
2018-04-25T11:59:06.492Z,12.49
2018-04-25T12:02:13.378Z,12.46
2018-04-25T12:05:19.215Z,12.46
2018-04-25T12:08:24.453Z,12.38
2018-04-25T12:11:29.673Z,12.32
2018-04-25T12:14:35.696Z,12.31
2018-04-25T12:17:42.785Z,12.28
2018-04-25T12:20:48.593Z,12.28
2018-04-25T12:23:54.757Z,12.27
2018-04-25T12:27:00.840Z,12.20
2018-04-25T12:30:07.942Z,12.13
2018-04-25T12:33:13.777Z,12.10
2018-04-25T12:36:19.010Z,12.09
2018-04-25T12:39:24.209Z,12.05
2018-04-25T12:42:30.420Z,12.03
2018-04-25T12:45:37.213Z,12.01
2018-04-25T12:48:42.829Z,11.99
2018-04-25T12:51:48.949Z,11.99
2018-04-25T12:54:55.082Z,11.97
2018-04-25T12:58:00.291Z,11.95
2018-04-25T13:01:06.302Z,11.94
2018-04-25T13:04:12.516Z,11.95
2018-04-25T13:07:18.324Z,11.92
2018-04-25T13:10:23.534Z,11.93
2018-04-25T13:13:29.245Z,11.93
2018-04-25T13:16:34.189Z,11.94
2018-04-25T13:19:39.425Z,11.95
2018-04-25T13:22:44.646Z,11.97
2018-04-25T13:25:50.269Z,11.98
2018-04-25T13:28:55.884Z,11.94
2018-04-25T13:32:01.282Z,11.93
2018-04-25T13:35:07.404Z,11.92
2018-04-25T13:38:13.409Z,11.86
2018-04-25T13:41:19.590Z,11.84
2018-04-25T13:44:25.565Z,11.83
2018-04-25T13:47:31.617Z,11.81
2018-04-25T13:50:37.457Z,11.79
2018-04-25T13:53:42.401Z,11.79
2018-04-25T13:56:47.650Z,11.82
2018-04-25T13:59:53.500Z,11.85
2018-04-25T14:02:59.418Z,11.87
2018-04-25T14:06:04.080Z,11.90
2018-04-25T14:09:09.517Z,11.92
2018-04-25T14:12:15.557Z,12.00
2018-04-25T14:15:21.722Z,12.05
2018-04-25T14:18:26.910Z,12.13
2018-04-25T14:21:32.837Z,12.21
2018-04-25T14:24:38.120Z,12.25
2018-04-25T14:27:43.509Z,12.31
2018-04-25T14:30:48.722Z,12.36
2018-04-25T14:33:53.977Z,12.39
2018-04-25T14:36:59.189Z,12.42
2018-04-25T14:40:04.885Z,12.44
2018-04-25T14:43:10.087Z,12.46
2018-04-25T14:46:15.293Z,12.49
2018-04-25T14:49:21.201Z,12.52
2018-04-25T14:52:27.323Z,12.55
2018-04-25T14:55:33.399Z,12.55
2018-04-25T14:58:39.313Z,12.57
2018-04-25T15:01:44.189Z,12.60
2018-04-25T15:04:49.633Z,12.60
2018-04-25T15:07:54.853Z,12.63
2018-04-25T15:11:00.790Z,12.64
2018-04-25T15:14:05.665Z,12.66
2018-04-25T15:17:11.090Z,12.67
2018-04-25T15:20:17.222Z,12.70
2018-04-25T15:23:24.089Z,12.70
2018-04-25T15:26:29.703Z,12.72
2018-04-25T15:29:34.733Z,12.72
2018-04-25T15:32:39.916Z,12.73
2018-04-25T15:35:46.037Z,12.72
2018-04-25T15:38:53.189Z,12.71
2018-04-25T15:41:59.053Z,12.69
2018-04-25T15:45:04.441Z,12.67
2018-04-25T15:48:09.422Z,12.64
2018-04-25T15:51:15.528Z,12.62
2018-04-25T15:54:21.149Z,12.61
2018-04-25T15:57:26.360Z,12.59
2018-04-25T16:00:31.573Z,12.57
2018-04-25T16:03:36.893Z,12.56
2018-04-25T16:06:42.329Z,12.54
2018-04-25T16:09:47.339Z,12.53
2018-04-25T16:12:53.158Z,12.52
2018-04-25T16:15:59.965Z,12.50
2018-04-25T16:19:05.746Z,12.49
2018-04-25T16:22:11.693Z,12.46
2018-04-25T16:25:18.416Z,12.45
2018-04-25T16:28:24.606Z,12.44
2018-04-25T16:31:30.877Z,12.41
2018-04-25T16:34:37.069Z,12.40
2018-04-25T16:37:42.339Z,12.39
2018-04-25T16:40:48.298Z,12.37
2018-04-25T16:43:54.153Z,12.36
2018-04-25T16:47:00.384Z,12.35
2018-04-25T16:50:05.613Z,12.33
2018-04-25T16:53:10.822Z,12.32
2018-04-25T16:56:17.746Z,12.30
2018-04-25T16:59:23.345Z,12.29
2018-04-25T17:02:28.433Z,12.27
2018-04-25T17:05:33.745Z,12.25
2018-04-25T17:08:39.009Z,12.25
2018-04-25T17:11:45.157Z,12.24
2018-04-25T17:14:50.628Z,12.23
2018-04-25T17:17:56.890Z,12.21
2018-04-25T17:21:02.007Z,12.18
2018-04-25T17:24:07.335Z,12.17
2018-04-25T17:27:12.538Z,12.15
2018-04-25T17:30:17.772Z,12.14
2018-04-25T17:33:23.317Z,12.11
2018-04-25T17:36:29.204Z,12.09
2018-04-25T17:39:35.017Z,12.06
2018-04-25T17:42:40.948Z,12.03
2018-04-25T17:45:46.951Z,12.00
2018-04-25T17:48:53.140Z,11.97
2018-04-25T17:51:58.381Z,11.91
2018-04-25T17:55:04.033Z,11.87
2018-04-25T17:58:10.110Z,11.84
2018-04-25T18:01:15.345Z,11.78
2018-04-25T18:04:21.517Z,11.74
2018-04-25T18:07:26.709Z,11.68
2018-04-25T18:10:31.919Z,11.62
2018-04-25T18:13:37.884Z,11.57
2018-04-25T18:16:43.885Z,11.50
2018-04-25T18:19:50.062Z,11.45
2018-04-25T18:22:56.381Z,11.35
2018-04-25T18:26:02.426Z,11.26
2018-04-25T18:29:08.434Z,11.23
2018-04-25T18:32:13.637Z,11.19
2018-04-25T18:35:18.841Z,11.15
2018-04-25T18:38:23.797Z,11.11
2018-04-25T18:41:29.821Z,11.09
2018-04-25T18:44:36.006Z,11.04
2018-04-25T18:47:42.043Z,11.02
2018-04-25T18:50:47.918Z,10.98
2018-04-25T18:53:54.290Z,10.96
2018-04-25T18:57:01.339Z,10.91
2018-04-25T19:00:06.521Z,10.85
2018-04-25T19:03:12.880Z,10.79
2018-04-25T19:06:18.524Z,10.78
2018-04-25T19:09:23.773Z,10.78
2018-04-25T19:12:29.093Z,10.77
2018-04-25T19:15:35.209Z,10.78
2018-04-25T19:18:41.353Z,10.76
2018-04-25T19:21:47.965Z,10.74
2018-04-25T19:24:54.087Z,10.71
2018-04-25T19:27:59.498Z,10.69
2018-04-25T19:31:05.581Z,10.62
2018-04-25T19:34:11.255Z,10.59
2018-04-25T19:37:17.621Z,10.54
2018-04-25T19:40:23.880Z,10.46
2018-04-25T19:43:29.173Z,10.40
2018-04-25T19:46:36.245Z,10.36
2018-04-25T19:49:41.446Z,10.28
2018-04-25T19:52:47.334Z,10.20
2018-04-25T19:55:53.482Z,10.13
2018-04-25T19:58:59.617Z,10.11
2018-04-25T20:02:04.837Z,10.07
2018-04-25T20:05:11.023Z,10.07
2018-04-25T20:08:17.241Z,10.02
2018-04-25T20:11:23.169Z,10.01
2018-04-25T20:14:29.109Z,9.96
2018-04-25T20:17:35.149Z,9.94
2018-04-25T20:20:41.161Z,9.94
2018-04-25T20:23:46.380Z,9.92
2018-04-25T20:26:51.571Z,9.92
2018-04-25T20:29:57.300Z,9.85
2018-04-25T20:33:03.684Z,9.83
2018-04-25T20:36:09.807Z,9.80
2018-04-25T20:39:15.184Z,9.79
2018-04-25T20:42:20.630Z,9.75
2018-04-25T20:45:25.841Z,9.76
2018-04-25T20:48:31.617Z,9.72
2018-04-25T20:51:37.620Z,9.69
2018-04-25T20:54:43.654Z,9.66
2018-04-25T20:57:49.764Z,9.66
2018-04-25T21:00:55.673Z,9.63
2018-04-25T21:04:00.891Z,9.64
2018-04-25T21:07:07.036Z,9.60
2018-04-25T21:10:13.149Z,9.62
2018-04-25T21:13:18.764Z,9.61
2018-04-25T21:16:24.788Z,9.57
2018-04-25T21:19:30.015Z,9.59
2018-04-25T21:22:35.193Z,9.63
2018-04-25T21:25:40.391Z,9.68
2018-04-25T21:28:45.609Z,9.70
2018-04-25T21:31:50.809Z,9.74
2018-04-25T21:34:56.521Z,9.72
2018-04-25T21:38:03.461Z,9.70
2018-04-25T21:41:08.654Z,9.52
2018-04-25T21:44:14.476Z,9.45
2018-04-25T21:47:20.590Z,9.33
2018-04-25T21:50:25.784Z,9.27
2018-04-25T21:53:31.799Z,9.22
2018-04-25T21:56:38.100Z,9.17
2018-04-25T21:59:43.305Z,9.10
2018-04-25T22:02:49.446Z,9.05
2018-04-25T22:05:55.046Z,8.99
2018-04-25T22:09:00.255Z,8.98
2018-04-25T22:12:06.093Z,8.96
2018-04-25T22:15:12.305Z,8.91
2018-04-25T22:18:18.554Z,8.91
2018-04-25T22:21:24.337Z,8.86
2018-04-25T22:24:30.767Z,8.85
2018-04-25T22:27:36.885Z,8.79
2018-04-25T22:30:43.633Z,8.78
2018-04-25T22:33:49.117Z,8.76
2018-04-25T22:36:54.313Z,8.75
2018-04-25T22:40:00.641Z,8.69
2018-04-25T22:43:05.616Z,8.66
2018-04-25T22:46:12.065Z,8.63
2018-04-25T22:49:17.727Z,8.58
2018-04-25T22:52:22.923Z,8.53
2018-04-25T22:55:28.149Z,8.52
2018-04-25T22:58:33.578Z,8.49
2018-04-25T23:01:39.793Z,8.46
2018-04-25T23:04:46.081Z,8.42
2018-04-25T23:07:51.282Z,8.39
2018-04-25T23:10:56.224Z,8.39
2018-04-25T23:14:01.938Z,8.33
2018-04-25T23:17:08.041Z,8.29
2018-04-25T23:20:14.157Z,8.29
2018-04-25T23:23:20.321Z,8.23
2018-04-25T23:26:26.533Z,8.22
2018-04-25T23:29:31.702Z,8.17
2018-04-25T23:32:37.345Z,8.18
2018-04-25T23:35:43.469Z,8.15
2018-04-25T23:38:48.667Z,8.11
2018-04-25T23:41:53.876Z,8.08
2018-04-25T23:44:59.782Z,8.06
2018-04-25T23:48:05.911Z,8.04
2018-04-25T23:51:12.025Z,8.03
2018-04-25T23:54:17.949Z,7.96
2018-04-25T23:57:23.868Z,7.98
